sensor_id;sensor_type;location;lat;lon;timestamp;P1;durP1;ratioP1;P2;durP2;ratioP2
21546;SDS011;41275;51.912;4.388;2022-12-26T00:03:44;23.38;;;11.85;;
21546;SDS011;41275;51.912;4.388;2022-12-26T00:09:05;18.57;;;10.30;;
21546;SDS011;41275;51.912;4.388;2022-12-26T00:14:27;19.67;;;10.70;;
21546;SDS011;41275;51.912;4.388;2022-12-26T00:19:48;20.85;;;10.50;;
21546;SDS011;41275;51.912;4.388;2022-12-26T00:25:09;20.47;;;10.73;;
21546;SDS011;41275;51.912;4.388;2022-12-26T00:30:31;18.65;;;10.45;;
21546;SDS011;41275;51.912;4.388;2022-12-26T00:35:52;20.63;;;10.60;;
21546;SDS011;41275;51.912;4.388;2022-12-26T00:41:14;19.20;;;11.05;;
21546;SDS011;41275;51.912;4.388;2022-12-26T00:46:36;17.05;;;10.15;;
21546;SDS011;41275;51.912;4.388;2022-12-26T00:51:57;19.50;;;10.33;;
21546;SDS011;41275;51.912;4.388;2022-12-26T00:57:19;17.47;;;9.10;;
21546;SDS011;41275;51.912;4.388;2022-12-26T01:02:40;18.13;;;9.50;;
21546;SDS011;41275;51.912;4.388;2022-12-26T01:08:01;15.10;;;8.43;;
21546;SDS011;41275;51.912;4.388;2022-12-26T01:13:22;16.20;;;8.90;;
21546;SDS011;41275;51.912;4.388;2022-12-26T01:18:44;17.73;;;8.27;;
21546;SDS011;41275;51.912;4.388;2022-12-26T01:24:05;13.73;;;8.30;;
21546;SDS011;41275;51.912;4.388;2022-12-26T01:29:26;15.00;;;8.38;;
21546;SDS011;41275;51.912;4.388;2022-12-26T01:34:47;13.60;;;8.00;;
21546;SDS011;41275;51.912;4.388;2022-12-26T01:40:10;16.33;;;8.83;;
21546;SDS011;41275;51.912;4.388;2022-12-26T01:45:32;15.70;;;8.30;;
21546;SDS011;41275;51.912;4.388;2022-12-26T01:56:19;12.68;;;7.22;;
21546;SDS011;41275;51.912;4.388;2022-12-26T02:01:45;12.80;;;7.68;;
21546;SDS011;41275;51.912;4.388;2022-12-26T02:07:10;15.98;;;8.05;;
21546;SDS011;41275;51.912;4.388;2022-12-26T02:12:32;12.15;;;7.43;;
21546;SDS011;41275;51.912;4.388;2022-12-26T02:17:54;12.25;;;6.90;;
21546;SDS011;41275;51.912;4.388;2022-12-26T02:34:38;13.37;;;8.50;;
21546;SDS011;41275;51.912;4.388;2022-12-26T02:52:02;12.10;;;7.20;;
21546;SDS011;41275;51.912;4.388;2022-12-26T02:57:58;10.33;;;6.70;;
21546;SDS011;41275;51.912;4.388;2022-12-26T03:03:43;12.40;;;8.18;;
21546;SDS011;41275;51.912;4.388;2022-12-26T03:09:26;10.65;;;7.20;;
21546;SDS011;41275;51.912;4.388;2022-12-26T03:15:11;11.25;;;6.43;;
21546;SDS011;41275;51.912;4.388;2022-12-26T03:20:35;8.37;;;5.33;;
21546;SDS011;41275;51.912;4.388;2022-12-26T03:25:58;9.57;;;5.53;;
21546;SDS011;41275;51.912;4.388;2022-12-26T03:31:43;9.63;;;5.05;;
21546;SDS011;41275;51.912;4.388;2022-12-26T03:37:09;9.43;;;5.03;;
21546;SDS011;41275;51.912;4.388;2022-12-26T03:48:48;9.60;;;4.43;;
21546;SDS011;41275;51.912;4.388;2022-12-26T03:54:40;7.50;;;4.20;;
21546;SDS011;41275;51.912;4.388;2022-12-26T04:00:28;6.68;;;3.63;;
21546;SDS011;41275;51.912;4.388;2022-12-26T04:06:13;5.83;;;3.33;;
21546;SDS011;41275;51.912;4.388;2022-12-26T04:11:58;7.18;;;3.20;;
21546;SDS011;41275;51.912;4.388;2022-12-26T04:17:48;7.05;;;3.40;;
21546;SDS011;41275;51.912;4.388;2022-12-26T04:23:43;4.60;;;2.80;;
21546;SDS011;41275;51.912;4.388;2022-12-26T04:29:28;4.83;;;2.70;;
21546;SDS011;41275;51.912;4.388;2022-12-26T04:40:58;4.88;;;2.28;;
21546;SDS011;41275;51.912;4.388;2022-12-26T04:46:41;3.85;;;2.20;;
21546;SDS011;41275;51.912;4.388;2022-12-26T04:52:06;4.47;;;2.27;;
21546;SDS011;41275;51.912;4.388;2022-12-26T04:57:31;7.97;;;2.20;;
21546;SDS011;41275;51.912;4.388;2022-12-26T05:02:52;5.85;;;2.13;;
21546;SDS011;41275;51.912;4.388;2022-12-26T05:08:40;4.23;;;2.10;;
21546;SDS011;41275;51.912;4.388;2022-12-26T05:14:22;3.92;;;1.80;;
21546;SDS011;41275;51.912;4.388;2022-12-26T05:19:43;3.03;;;1.80;;
21546;SDS011;41275;51.912;4.388;2022-12-26T05:25:24;4.40;;;1.92;;
21546;SDS011;41275;51.912;4.388;2022-12-26T05:31:07;4.55;;;2.25;;
21546;SDS011;41275;51.912;4.388;2022-12-26T05:36:36;6.40;;;2.03;;
21546;SDS011;41275;51.912;4.388;2022-12-26T05:42:08;3.85;;;1.95;;
21546;SDS011;41275;51.912;4.388;2022-12-26T05:47:29;3.90;;;1.85;;
21546;SDS011;41275;51.912;4.388;2022-12-26T05:52:51;4.45;;;2.15;;
21546;SDS011;41275;51.912;4.388;2022-12-26T05:58:14;7.70;;;3.10;;
21546;SDS011;41275;51.912;4.388;2022-12-26T06:03:35;6.40;;;2.00;;
21546;SDS011;41275;51.912;4.388;2022-12-26T06:08:56;4.73;;;1.93;;
21546;SDS011;41275;51.912;4.388;2022-12-26T06:14:18;4.63;;;2.10;;
21546;SDS011;41275;51.912;4.388;2022-12-26T06:19:39;5.07;;;1.98;;
21546;SDS011;41275;51.912;4.388;2022-12-26T06:25:00;3.65;;;1.98;;
21546;SDS011;41275;51.912;4.388;2022-12-26T06:30:21;7.85;;;2.33;;
21546;SDS011;41275;51.912;4.388;2022-12-26T06:35:43;4.63;;;1.90;;
21546;SDS011;41275;51.912;4.388;2022-12-26T06:41:05;5.35;;;2.20;;
21546;SDS011;41275;51.912;4.388;2022-12-26T06:46:27;4.82;;;2.00;;
21546;SDS011;41275;51.912;4.388;2022-12-26T06:51:48;5.67;;;1.90;;
21546;SDS011;41275;51.912;4.388;2022-12-26T06:57:09;3.97;;;1.57;;
21546;SDS011;41275;51.912;4.388;2022-12-26T07:02:31;5.13;;;1.60;;
21546;SDS011;41275;51.912;4.388;2022-12-26T07:07:52;5.35;;;1.80;;
21546;SDS011;41275;51.912;4.388;2022-12-26T07:13:13;5.60;;;1.83;;
21546;SDS011;41275;51.912;4.388;2022-12-26T07:18:34;5.03;;;1.60;;
21546;SDS011;41275;51.912;4.388;2022-12-26T07:23:56;5.00;;;1.95;;
21546;SDS011;41275;51.912;4.388;2022-12-26T07:29:17;4.88;;;1.58;;
21546;SDS011;41275;51.912;4.388;2022-12-26T07:34:40;4.38;;;1.60;;
21546;SDS011;41275;51.912;4.388;2022-12-26T07:40:01;6.28;;;1.85;;
21546;SDS011;41275;51.912;4.388;2022-12-26T07:45:23;4.00;;;1.90;;
21546;SDS011;41275;51.912;4.388;2022-12-26T07:50:44;8.27;;;1.83;;
21546;SDS011;41275;51.912;4.388;2022-12-26T07:56:06;9.93;;;1.87;;
21546;SDS011;41275;51.912;4.388;2022-12-26T08:01:28;5.28;;;1.60;;
21546;SDS011;41275;51.912;4.388;2022-12-26T08:06:49;4.88;;;1.63;;
21546;SDS011;41275;51.912;4.388;2022-12-26T08:12:10;7.65;;;2.13;;
21546;SDS011;41275;51.912;4.388;2022-12-26T08:17:32;4.35;;;1.60;;
21546;SDS011;41275;51.912;4.388;2022-12-26T08:22:54;7.43;;;1.67;;
21546;SDS011;41275;51.912;4.388;2022-12-26T08:28:15;4.97;;;1.60;;
21546;SDS011;41275;51.912;4.388;2022-12-26T08:33:36;9.50;;;1.73;;
21546;SDS011;41275;51.912;4.388;2022-12-26T08:38:57;9.70;;;1.80;;
21546;SDS011;41275;51.912;4.388;2022-12-26T08:44:19;7.78;;;1.70;;
21546;SDS011;41275;51.912;4.388;2022-12-26T08:49:40;6.75;;;1.80;;
21546;SDS011;41275;51.912;4.388;2022-12-26T08:55:01;11.57;;;1.67;;
21546;SDS011;41275;51.912;4.388;2022-12-26T09:00:23;12.65;;;2.05;;
21546;SDS011;41275;51.912;4.388;2022-12-26T09:05:46;12.30;;;1.80;;
21546;SDS011;41275;51.912;4.388;2022-12-26T09:11:10;14.52;;;2.50;;
21546;SDS011;41275;51.912;4.388;2022-12-26T09:16:36;13.63;;;1.90;;
21546;SDS011;41275;51.912;4.388;2022-12-26T09:22:02;11.77;;;1.77;;
21546;SDS011;41275;51.912;4.388;2022-12-26T09:27:42;11.80;;;2.10;;
21546;SDS011;41275;51.912;4.388;2022-12-26T09:33:03;7.63;;;1.87;;
21546;SDS011;41275;51.912;4.388;2022-12-26T09:38:27;11.03;;;1.67;;
21546;SDS011;41275;51.912;4.388;2022-12-26T09:43:58;4.60;;;0.93;;
21546;SDS011;41275;51.912;4.388;2022-12-26T09:49:24;7.90;;;1.30;;
21546;SDS011;41275;51.912;4.388;2022-12-26T09:54:52;6.33;;;0.97;;
21546;SDS011;41275;51.912;4.388;2022-12-26T10:06:10;8.18;;;1.15;;
21546;SDS011;41275;51.912;4.388;2022-12-26T10:23:21;7.57;;;1.00;;
21546;SDS011;41275;51.912;4.388;2022-12-26T10:45:17;8.32;;;1.10;;
21546;SDS011;41275;51.912;4.388;2022-12-26T10:50:47;7.93;;;1.50;;
21546;SDS011;41275;51.912;4.388;2022-12-26T10:56:08;6.93;;;1.02;;
21546;SDS011;41275;51.912;4.388;2022-12-26T11:01:34;6.15;;;0.95;;
21546;SDS011;41275;51.912;4.388;2022-12-26T11:07:00;4.55;;;0.73;;
21546;SDS011;41275;51.912;4.388;2022-12-26T11:12:33;4.90;;;0.70;;
21546;SDS011;41275;51.912;4.388;2022-12-26T11:23:37;5.47;;;1.10;;
21546;SDS011;41275;51.912;4.388;2022-12-26T11:29:15;3.72;;;0.80;;
21546;SDS011;41275;51.912;4.388;2022-12-26T11:34:39;4.03;;;0.80;;
21546;SDS011;41275;51.912;4.388;2022-12-26T11:40:20;3.40;;;0.60;;
21546;SDS011;41275;51.912;4.388;2022-12-26T11:45:47;5.38;;;0.55;;
21546;SDS011;41275;51.912;4.388;2022-12-26T11:51:09;2.40;;;0.70;;
21546;SDS011;41275;51.912;4.388;2022-12-26T11:56:31;2.63;;;0.53;;
21546;SDS011;41275;51.912;4.388;2022-12-26T12:13:26;2.67;;;0.50;;
21546;SDS011;41275;51.912;4.388;2022-12-26T12:31:06;5.47;;;0.52;;
21546;SDS011;41275;51.912;4.388;2022-12-26T12:36:59;2.95;;;0.60;;
21546;SDS011;41275;51.912;4.388;2022-12-26T12:42:35;5.60;;;0.82;;
21546;SDS011;41275;51.912;4.388;2022-12-26T12:48:12;4.72;;;0.80;;
21546;SDS011;41275;51.912;4.388;2022-12-26T13:11:28;4.55;;;0.88;;
21546;SDS011;41275;51.912;4.388;2022-12-26T13:16:54;2.78;;;0.75;;
21546;SDS011;41275;51.912;4.388;2022-12-26T13:22:22;5.47;;;0.77;;
21546;SDS011;41275;51.912;4.388;2022-12-26T13:27:47;3.17;;;0.70;;
21546;SDS011;41275;51.912;4.388;2022-12-26T13:33:12;3.97;;;0.80;;
21546;SDS011;41275;51.912;4.388;2022-12-26T13:49:39;5.82;;;0.95;;
21546;SDS011;41275;51.912;4.388;2022-12-26T14:00:43;4.70;;;0.63;;
21546;SDS011;41275;51.912;4.388;2022-12-26T14:12:08;4.03;;;0.70;;
21546;SDS011;41275;51.912;4.388;2022-12-26T14:40:33;5.28;;;0.90;;
21546;SDS011;41275;51.912;4.388;2022-12-26T14:45:57;7.90;;;1.35;;
21546;SDS011;41275;51.912;4.388;2022-12-26T14:56:39;9.35;;;1.15;;
21546;SDS011;41275;51.912;4.388;2022-12-26T15:07:37;7.60;;;1.30;;
21546;SDS011;41275;51.912;4.388;2022-12-26T15:13:09;5.38;;;1.60;;
21546;SDS011;41275;51.912;4.388;2022-12-26T15:36:42;12.25;;;1.40;;
21546;SDS011;41275;51.912;4.388;2022-12-26T15:47:58;9.47;;;1.87;;
21546;SDS011;41275;51.912;4.388;2022-12-26T16:05:17;7.20;;;1.63;;
21546;SDS011;41275;51.912;4.388;2022-12-26T16:10:45;8.02;;;2.28;;
21546;SDS011;41275;51.912;4.388;2022-12-26T16:16:06;7.70;;;1.63;;
21546;SDS011;41275;51.912;4.388;2022-12-26T16:21:28;8.40;;;1.92;;
21546;SDS011;41275;51.912;4.388;2022-12-26T16:27:08;9.30;;;1.75;;
21546;SDS011;41275;51.912;4.388;2022-12-26T16:32:36;8.65;;;1.65;;
21546;SDS011;41275;51.912;4.388;2022-12-26T16:37:59;8.25;;;1.42;;
21546;SDS011;41275;51.912;4.388;2022-12-26T16:43:24;10.20;;;1.63;;
21546;SDS011;41275;51.912;4.388;2022-12-26T16:48:46;8.43;;;1.60;;
21546;SDS011;41275;51.912;4.388;2022-12-26T16:54:22;6.95;;;1.60;;
21546;SDS011;41275;51.912;4.388;2022-12-26T17:10:52;8.55;;;1.75;;
21546;SDS011;41275;51.912;4.388;2022-12-26T17:16:13;7.68;;;1.83;;
21546;SDS011;41275;51.912;4.388;2022-12-26T17:21:34;7.93;;;1.92;;
21546;SDS011;41275;51.912;4.388;2022-12-26T17:32:39;7.50;;;1.52;;
21546;SDS011;41275;51.912;4.388;2022-12-26T17:38:05;10.10;;;1.92;;
21546;SDS011;41275;51.912;4.388;2022-12-26T17:43:36;8.73;;;1.80;;
21546;SDS011;41275;51.912;4.388;2022-12-26T17:48:59;10.98;;;1.95;;
21546;SDS011;41275;51.912;4.388;2022-12-26T17:54:20;10.95;;;1.95;;
21546;SDS011;41275;51.912;4.388;2022-12-26T17:59:41;6.05;;;1.60;;
21546;SDS011;41275;51.912;4.388;2022-12-26T18:05:02;9.38;;;3.22;;
21546;SDS011;41275;51.912;4.388;2022-12-26T18:10:25;8.15;;;1.75;;
21546;SDS011;41275;51.912;4.388;2022-12-26T18:15:49;10.57;;;1.95;;
21546;SDS011;41275;51.912;4.388;2022-12-26T18:21:12;12.03;;;1.97;;
21546;SDS011;41275;51.912;4.388;2022-12-26T18:26:35;9.77;;;1.70;;
21546;SDS011;41275;51.912;4.388;2022-12-26T18:31:56;9.23;;;1.97;;
21546;SDS011;41275;51.912;4.388;2022-12-26T18:37:18;7.70;;;1.60;;
21546;SDS011;41275;51.912;4.388;2022-12-26T18:42:41;10.30;;;2.38;;
21546;SDS011;41275;51.912;4.388;2022-12-26T18:48:02;7.75;;;2.00;;
21546;SDS011;41275;51.912;4.388;2022-12-26T18:53:24;7.60;;;2.40;;
21546;SDS011;41275;51.912;4.388;2022-12-26T18:58:45;7.10;;;2.20;;
21546;SDS011;41275;51.912;4.388;2022-12-26T19:04:08;8.07;;;1.83;;
21546;SDS011;41275;51.912;4.388;2022-12-26T19:09:29;9.38;;;2.55;;
21546;SDS011;41275;51.912;4.388;2022-12-26T19:14:51;9.63;;;2.58;;
21546;SDS011;41275;51.912;4.388;2022-12-26T19:20:19;9.30;;;1.90;;
21546;SDS011;41275;51.912;4.388;2022-12-26T19:25:42;5.47;;;1.58;;
21546;SDS011;41275;51.912;4.388;2022-12-26T19:31:10;6.22;;;1.67;;
21546;SDS011;41275;51.912;4.388;2022-12-26T19:36:33;11.27;;;2.17;;
21546;SDS011;41275;51.912;4.388;2022-12-26T19:41:54;5.13;;;1.50;;
21546;SDS011;41275;51.912;4.388;2022-12-26T19:47:16;8.45;;;1.73;;
21546;SDS011;41275;51.912;4.388;2022-12-26T19:52:37;6.32;;;1.70;;
21546;SDS011;41275;51.912;4.388;2022-12-26T19:57:59;7.60;;;1.87;;
21546;SDS011;41275;51.912;4.388;2022-12-26T20:03:20;6.03;;;1.67;;
21546;SDS011;41275;51.912;4.388;2022-12-26T20:08:42;6.57;;;1.57;;
21546;SDS011;41275;51.912;4.388;2022-12-26T20:14:04;5.57;;;1.70;;
21546;SDS011;41275;51.912;4.388;2022-12-26T20:19:26;8.25;;;1.85;;
21546;SDS011;41275;51.912;4.388;2022-12-26T20:24:48;9.80;;;2.00;;
21546;SDS011;41275;51.912;4.388;2022-12-26T20:30:09;8.25;;;1.65;;
21546;SDS011;41275;51.912;4.388;2022-12-26T20:35:30;9.53;;;1.60;;
21546;SDS011;41275;51.912;4.388;2022-12-26T20:40:52;6.53;;;1.70;;
21546;SDS011;41275;51.912;4.388;2022-12-26T20:46:14;8.70;;;1.50;;
21546;SDS011;41275;51.912;4.388;2022-12-26T20:51:38;7.70;;;1.47;;
21546;SDS011;41275;51.912;4.388;2022-12-26T20:57:01;11.27;;;2.00;;
21546;SDS011;41275;51.912;4.388;2022-12-26T21:02:22;12.18;;;1.83;;
21546;SDS011;41275;51.912;4.388;2022-12-26T21:07:43;9.52;;;2.17;;
21546;SDS011;41275;51.912;4.388;2022-12-26T21:13:05;10.38;;;1.90;;
21546;SDS011;41275;51.912;4.388;2022-12-26T21:18:27;11.10;;;2.08;;
21546;SDS011;41275;51.912;4.388;2022-12-26T21:23:49;7.77;;;2.10;;
21546;SDS011;41275;51.912;4.388;2022-12-26T21:29:17;8.18;;;2.00;;
21546;SDS011;41275;51.912;4.388;2022-12-26T21:34:43;12.63;;;2.30;;
21546;SDS011;41275;51.912;4.388;2022-12-26T21:40:05;13.00;;;2.53;;
21546;SDS011;41275;51.912;4.388;2022-12-26T21:45:26;8.38;;;2.00;;
21546;SDS011;41275;51.912;4.388;2022-12-26T21:50:47;9.30;;;2.33;;
21546;SDS011;41275;51.912;4.388;2022-12-26T21:56:09;11.32;;;2.47;;
21546;SDS011;41275;51.912;4.388;2022-12-26T22:01:31;9.97;;;2.30;;
21546;SDS011;41275;51.912;4.388;2022-12-26T22:06:52;9.70;;;2.17;;
21546;SDS011;41275;51.912;4.388;2022-12-26T22:12:14;9.57;;;1.90;;
21546;SDS011;41275;51.912;4.388;2022-12-26T22:17:54;7.97;;;1.50;;
21546;SDS011;41275;51.912;4.388;2022-12-26T22:23:15;7.90;;;1.27;;
21546;SDS011;41275;51.912;4.388;2022-12-26T22:28:36;12.32;;;1.90;;
21546;SDS011;41275;51.912;4.388;2022-12-26T22:34:02;8.97;;;1.53;;
21546;SDS011;41275;51.912;4.388;2022-12-26T22:39:29;11.17;;;2.47;;
21546;SDS011;41275;51.912;4.388;2022-12-26T22:44:50;8.63;;;1.87;;
21546;SDS011;41275;51.912;4.388;2022-12-26T22:50:14;12.30;;;1.98;;
21546;SDS011;41275;51.912;4.388;2022-12-26T22:55:36;6.30;;;1.67;;
21546;SDS011;41275;51.912;4.388;2022-12-26T23:00:57;8.32;;;1.50;;
21546;SDS011;41275;51.912;4.388;2022-12-26T23:06:20;10.93;;;1.98;;
21546;SDS011;41275;51.912;4.388;2022-12-26T23:11:42;9.73;;;1.67;;
21546;SDS011;41275;51.912;4.388;2022-12-26T23:17:23;10.43;;;1.50;;
21546;SDS011;41275;51.912;4.388;2022-12-26T23:23:05;9.43;;;1.77;;
21546;SDS011;41275;51.912;4.388;2022-12-26T23:28:26;8.85;;;1.60;;
21546;SDS011;41275;51.912;4.388;2022-12-26T23:34:06;8.77;;;1.42;;
21546;SDS011;41275;51.912;4.388;2022-12-26T23:39:27;9.20;;;2.03;;
21546;SDS011;41275;51.912;4.388;2022-12-26T23:44:49;9.57;;;1.70;;
21546;SDS011;41275;51.912;4.388;2022-12-26T23:50:11;5.30;;;2.00;;
21546;SDS011;41275;51.912;4.388;2022-12-26T23:55:33;6.65;;;1.45;;
